Latest Weather Observations for Braidwood

IDN60901

Issued at 3:02 pm EDT Friday 27 February 2015 (issued every 10 minutes, with the page automatically refreshed every 10 minutes)

About weather observations | Map of Canberra area stations | Latest observations for Canberra area | Other Formats
Station Details ID: 069132 Name: BRAIDWOOD RACECOURSE AWS Lat: -35.43 Lon: 149.78 Height: 665.2 m
Data from the previous 72 hours. | See also: Recent months at Braidwood
Date/Time
EDT
Tmp

°C
App
Tmp
°C
Dew
Point
°C
Rel
Hum
%
Delta-T

°C
Wind Press
QNH
hPa
Press
MSL
hPa
Rain
since
9 am
mm
Dir
 
Spd
km/h
Gust
km/h
Spd
kts
Gust
kts
27/03:00pm 24.1 24.0 13.9 53 6.2 NNE 7 17 4 9 1010.8 1008.1 0.0
27/02:30pm 23.4 22.9 13.8 54 5.8 NE 9 19 5 10 1011.4 1008.6 0.0
27/02:00pm 23.5 23.5 13.7 54 5.9 N 6 13 3 7 1011.8 1009.0 0.0
27/01:30pm 22.1 21.9 13.7 59 5.0 NE 7 15 4 8 1012.1 1009.3 0.0
27/01:00pm 21.6 22.4 13.8 61 4.7 NW 2 9 1 5 1012.6 1009.8 0.0
27/12:30pm 21.4 21.5 13.8 62 4.5 N 6 9 3 5 1012.8 1010.0 0.0
27/12:00pm 20.6 21.1 14.0 66 3.9 N 4 9 2 5 1013.2 1010.4 0.0
27/11:30am 20.6 20.6 14.3 67 3.8 N 7 13 4 7 1013.4 1010.6 0.0
27/11:00am 20.2 20.4 14.1 68 3.6 N 6 13 3 7 1013.6 1010.9 0.0
27/10:30am 19.6 19.9 14.4 72 3.1 NNE 6 13 3 7 1013.5 1010.8 0.0
27/10:00am 18.7 18.8 14.4 76 2.6 NNE 7 15 4 8 1013.4 1010.6 0.0
27/09:30am 18.0 19.4 15.3 84 1.6 N 2 7 1 4 1013.4 1010.6 0.0
27/09:00am 17.1 17.7 15.3 89 1.1 NNE 6 9 3 5 1013.3 1010.5 0.0
27/08:30am 16.5 18.3 15.4 93 0.7 CALM 0 0 0 0 1013.1 1010.3 0.0
27/08:00am 15.3 16.7 14.5 95 0.5 CALM 0 0 0 0 1013.0 1010.2 0.0
27/07:30am 14.8 16.1 14.0 95 0.5 CALM 0 0 0 0 1012.8 1010.0 0.0
27/07:00am 14.3 15.4 13.5 95 0.5 CALM 0 0 0 0 1012.6 1009.8 0.0
27/06:30am 13.9 14.8 13.0 94 0.5 CALM 0 0 0 0 1012.3 1009.6 0.0
27/05:30am 14.7 16.0 14.1 96 0.3 CALM 0 0 0 0 1012.0 1009.2 0.0
27/05:00am 14.0 15.0 13.2 95 0.5 CALM 0 0 0 0 1012.0 1009.2 0.0
27/04:30am 14.0 14.9 12.9 93 0.6 CALM 0 0 0 0 1012.0 1009.2 0.0
27/04:00am 14.5 15.5 13.2 92 0.7 CALM 0 0 0 0 1012.0 1009.2 0.0
27/03:30am 15.5 16.9 14.5 94 0.6 CALM 0 0 0 0 1012.0 1009.2 0.0
27/03:00am 15.4 16.9 14.6 95 0.5 CALM 0 0 0 0 1012.1 1009.3 0.0
27/02:30am 14.4 15.5 13.4 94 0.6 CALM 0 0 0 0 1012.2 1009.5 0.0
27/02:00am 14.3 15.1 12.7 90 0.9 CALM 0 0 0 0 1012.3 1009.6 0.0
27/01:30am 15.7 16.9 13.9 89 1.0 CALM 0 0 0 0 1012.6 1009.8 0.0
27/01:00am 16.4 17.9 14.6 89 1.1 CALM 0 0 0 0 1013.1 1010.3 0.0
27/12:30am 16.2 17.6 14.4 89 1.1 CALM 0 0 0 0 1013.2 1010.4 0.0
27/12:00am 16.3 17.9 14.8 91 0.9 CALM 0 0 0 0 1013.2 1010.4 0.0
 
Date/Time
EDT
Tmp

°C
App
Tmp
°C
Dew
Point
°C
Rel
Hum
%
Delta-T

°C
Wind Press
QNH
hPa
Press
MSL
hPa
Rain
since
9 am
mm
Dir
 
Spd
km/h
Gust
km/h
Spd
kts
Gust
kts
26/11:30pm 16.1 17.6 14.6 91 0.9 CALM 0 0 0 0 1013.3 1010.5 0.0
26/11:00pm 15.9 17.3 14.4 91 0.9 CALM 0 0 0 0 1013.4 1010.6 0.0
26/10:30pm 15.7 17.2 14.7 94 0.6 CALM 0 0 0 0 1013.5 1010.8 0.0
26/10:00pm 15.1 16.3 13.8 92 0.8 CALM 0 4 0 2 1013.3 1010.5 0.0
26/09:30pm 15.5 16.0 13.9 90 0.9 S 4 6 2 3 1013.1 1010.3 0.0
26/09:00pm 16.2 16.9 14.6 90 0.9 SSE 4 6 2 3 1012.8 1010.0 0.0
26/08:30pm 16.7 17.0 14.9 89 1.1 S 7 11 4 6 1012.1 1009.3 0.0
26/08:00pm 17.0 17.3 15.0 88 1.2 SSW 7 11 4 6 1011.3 1008.5 0.0
26/07:30pm 18.0 18.2 15.8 87 1.3 SSE 9 13 5 7 1010.5 1007.7 0.0
26/07:00pm 18.6 18.4 15.7 83 1.8 S 11 17 6 9 1010.4 1007.6 0.0
26/06:30pm 19.3 18.3 15.6 79 2.3 SE 15 24 8 13 1009.9 1007.1 0.0
26/06:00pm 19.1 18.3 16.1 83 1.8 SE 15 24 8 13 1009.1 1006.3 0.0
26/05:30pm 18.6 16.7 15.3 81 2.0 SE 19 28 10 15 1009.0 1006.2 0.0
26/05:00pm 19.1 17.8 13.7 71 3.2 SE 13 17 7 9 1008.9 1006.1 0.0
26/04:30pm 21.2 18.9 12.9 59 4.9 SE 17 26 9 14 1008.8 1006.0 0.0
26/04:00pm 25.3 27.0 15.3 54 6.2 CALM 0 0 0 0 1008.4 1005.6 0.0
26/03:30pm 24.7 25.7 15.3 56 5.8 N 4 9 2 5 1008.7 1005.9 0.0
26/03:00pm 24.3 24.8 14.1 53 6.2 NNW 4 11 2 6 1009.0 1006.2 0.0
26/02:30pm 24.2 24.8 14.3 54 6.0 N 4 7 2 4 1009.6 1006.8 0.0
26/02:00pm 24.2 25.4 15.9 59 5.2 NE 4 11 2 6 1009.9 1007.1 0.0
26/01:30pm 22.7 24.5 15.5 64 4.4 CALM 0 0 0 0 1010.2 1007.4 0.0
26/01:00pm 21.6 23.0 14.5 64 4.3 CALM 0 6 0 3 1010.3 1007.5 0.0
26/12:30pm 21.7 23.1 14.4 63 4.4 CALM 0 0 0 0 1010.6 1007.8 0.0
26/12:00pm 21.5 23.0 14.6 65 4.2 CALM 0 0 0 0 1011.1 1008.3 0.0
26/11:30am 21.2 22.1 14.1 64 4.3 NNW 2 7 1 4 1011.4 1008.6 0.0
26/11:00am 20.3 20.5 14.2 68 3.7 NNW 6 9 3 5 1011.8 1009.0 0.0
26/10:30am 20.1 21.4 15.1 73 3.0 N 2 7 1 4 1011.8 1009.0 0.0
26/10:00am 17.6 18.1 14.1 80 2.1 N 4 9 2 5 1012.0 1009.2 0.0
26/09:30am 16.7 16.4 12.8 78 2.2 N 6 11 3 6 1011.8 1009.0 0.0
26/09:00am 17.2 16.8 12.9 76 2.5 N 7 13 4 7 1011.8 1009.0 0.4
26/08:30am 15.4 14.4 12.3 82 1.8 N 9 17 5 9 1011.8 1009.0 0.4
26/08:00am 14.0 13.3 12.0 88 1.1 NNW 7 11 4 6 1011.9 1009.1 0.4
26/07:30am 14.1 13.7 12.3 89 1.0 N 6 9 3 5 1011.9 1009.1 0.4
26/07:00am 14.1 13.7 12.3 89 1.0 NNW 6 11 3 6 1011.7 1008.9 0.4
26/06:30am 14.1 13.7 12.3 89 1.0 NNW 6 11 3 6 1011.7 1008.9 0.4
26/06:00am 14.1 13.7 12.5 90 0.9 NNW 6 11 3 6 1011.7 1008.9 0.4
26/05:30am 14.0 14.8 12.6 91 0.8 CALM 0 0 0 0 1011.8 1009.0 0.4
26/05:00am 14.0 14.8 12.6 91 0.8 CALM 0 0 0 0 1012.0 1009.2 0.4
26/04:30am 13.9 14.7 12.5 91 0.8 CALM 0 0 0 0 1012.0 1009.2 0.4
26/04:00am 13.8 14.6 12.4 91 0.8 CALM 0 0 0 0 1012.6 1009.8 0.4
26/03:30am 13.8 14.6 12.4 91 0.8 CALM 0 0 0 0 1012.8 1010.0 0.4
26/03:00am 13.8 14.6 12.4 91 0.8 CALM 0 0 0 0 1013.3 1010.5 0.4
26/02:30am 13.8 14.5 12.2 90 0.9 CALM 0 0 0 0 1013.6 1010.9 0.4
26/02:00am 13.7 14.4 12.1 90 0.9 CALM 0 0 0 0 1013.9 1011.2 0.4
26/01:30am 13.7 14.3 11.9 89 1.0 CALM 0 0 0 0 1014.3 1011.5 0.4
26/01:00am 13.7 14.3 11.9 89 1.0 CALM 0 0 0 0 1014.6 1011.8 0.4
26/12:30am 13.7 14.3 11.9 89 1.0 CALM 0 0 0 0 1015.0 1012.3 0.4
26/12:00am 13.8 14.4 12.0 89 1.0 CALM 0 0 0 0 1015.3 1012.6 0.4
 
Date/Time
EDT
Tmp

°C
App
Tmp
°C
Dew
Point
°C
Rel
Hum
%
Delta-T

°C
Wind Press
QNH
hPa
Press
MSL
hPa
Rain
since
9 am
mm
Dir
 
Spd
km/h
Gust
km/h
Spd
kts
Gust
kts
25/11:30pm 13.8 14.3 11.7 87 1.2 CALM 0 0 0 0 1015.9 1013.1 0.4
25/11:00pm 13.8 14.3 11.7 87 1.2 CALM 0 0 0 0 1016.0 1013.2 0.4
25/10:30pm 13.8 14.4 12.0 89 1.0 CALM 0 0 0 0 1016.2 1013.5 0.4
25/10:00pm 13.8 14.4 12.0 89 1.0 CALM 0 0 0 0 1016.3 1013.6 0.4
25/09:30pm 13.8 14.4 11.8 88 1.1 CALM 0 0 0 0 1016.4 1013.7 0.4
25/09:00pm 13.8 13.6 11.7 87 1.2 SE 4 6 2 3 1016.4 1013.7 0.4
25/08:30pm 13.9 13.3 11.8 87 1.2 SE 6 9 3 5 1016.5 1013.8 0.4
25/08:00pm 13.9 13.1 11.8 87 1.2 ESE 7 9 4 5 1016.7 1014.0 0.4
25/07:30pm 14.0 12.9 11.9 87 1.2 ESE 9 13 5 7 1016.8 1014.1 0.4
25/07:00pm 14.3 12.5 12.2 87 1.2 SE 13 17 7 9 1016.8 1014.1 0.4
25/06:30pm 14.7 12.6 12.4 86 1.3 ESE 15 22 8 12 1016.8 1014.1 0.4
25/06:00pm 15.0 13.2 12.1 83 1.6 SE 13 20 7 11 1017.0 1014.3 0.4
25/05:30pm 14.9 13.0 11.9 82 1.7 SE 13 19 7 10 1016.9 1014.2 0.4
25/05:00pm 14.2 11.5 12.8 91 0.8 ESE 19 24 10 13 1017.1 1014.4 0.4
25/04:30pm 15.6 14.2 12.2 80 1.9 ESE 11 15 6 8 1017.4 1014.6 0.4
25/04:00pm 16.0 13.9 12.4 79 2.0 ESE 15 20 8 11 1017.6 1014.9 0.4
25/03:30pm 16.2 13.8 12.7 80 2.0 SE 17 22 9 12 1017.8 1015.1 0.4
25/03:00pm 16.1 13.3 12.5 79 2.0 ESE 19 24 10 13 1018.0 1015.3 0.4
25/02:30pm 15.6 12.2 12.5 82 1.8 ESE 22 28 12 15 1018.3 1015.6 0.4
25/02:00pm 16.7 13.8 12.3 75 2.5 E 19 24 10 13 1018.6 1015.9 0.4
25/01:30pm 15.4 12.4 12.0 80 1.9 ESE 19 26 10 14 1019.3 1016.6 0.4
25/01:00pm 16.6 13.3 12.9 79 2.1 SE 22 28 12 15 1019.5 1016.8 0.4
25/12:30pm 16.3 13.4 13.0 81 1.9 ESE 20 26 11 14 1019.8 1017.1 0.4
25/12:00pm 15.9 13.1 13.2 84 1.6 ESE 20 32 11 17 1019.8 1017.1 0.4
25/11:30am 15.8 13.5 14.0 89 1.1 SE 19 24 10 13 1020.0 1017.3 0.4
25/11:00am 14.9 12.7 13.3 90 0.9 SE 17 24 9 13 1020.1 1017.4 0.2
25/10:30am 14.8 12.4 12.8 88 1.1 SE 17 24 9 13 1020.1 1017.4 0.2
25/10:00am 14.2 12.4 13.2 94 0.6 S 15 19 8 10 1020.1 1017.4 0.2
25/09:30am 14.2 12.8 13.4 95 0.5 SSE 13 17 7 9 1020.1 1017.4 0.0
25/09:00am 14.2 12.8 13.4 95 0.5 S 13 20 7 11 1020.0 1017.3 -
25/08:30am 14.0 12.2 13.2 95 0.5 S 15 20 8 11 1019.8 1017.1 -
25/08:00am 13.5 11.5 12.7 95 0.4 S 15 22 8 12 1019.7 1017.0 -
25/07:30am 13.4 11.0 12.8 96 0.3 S 17 22 9 12 1019.2 1016.5 -
25/07:00am 13.2 11.5 12.6 96 0.3 S 13 19 7 10 1018.8 1016.2 -
25/06:30am 13.3 11.3 12.7 96 0.3 S 15 19 8 10 1018.4 1015.7 -
25/06:00am 13.4 11.0 12.8 96 0.3 S 17 22 9 12 1018.3 1015.6 -
25/05:30am 13.7 11.8 13.1 96 0.3 S 15 22 8 12 1018.0 1015.3 -
25/05:00am 13.9 12.5 13.3 96 0.3 S 13 17 7 9 1017.9 1015.2 -
25/04:30am 14.0 13.0 13.4 96 0.3 S 11 17 6 9 1018.0 1015.3 -
25/04:00am 14.1 12.7 13.5 96 0.3 S 13 17 7 9 1018.0 1015.3 -
25/03:30am 14.1 12.7 13.5 96 0.3 S 13 17 7 9 1018.2 1015.5 -
25/03:00am 14.0 12.2 13.2 95 0.5 S 15 20 8 11 1018.2 1015.5 0.0
25/02:30am 14.0 12.2 13.2 95 0.5 S 15 20 8 11 1018.4 1015.7 -
25/02:00am 14.1 11.5 13.3 95 0.5 S 19 24 10 13 1018.8 1016.2 -
25/01:30am 14.1 11.9 13.3 95 0.5 S 17 20 9 11 1019.1 1016.4 -
25/01:00am 14.1 12.7 13.3 95 0.5 S 13 17 7 9 1019.4 1016.7 -
25/12:30am 14.2 13.2 13.4 95 0.5 S 11 17 6 9 1019.6 1016.9 -
25/12:00am 14.1 13.1 13.3 95 0.5 S 11 17 6 9 1019.6 1016.9 -
 
Date/Time
EDT
Tmp

°C
App
Tmp
°C
Dew
Point
°C
Rel
Hum
%
Delta-T

°C
Wind Press
QNH
hPa
Press
MSL
hPa
Rain
since
9 am
mm
Dir
 
Spd
km/h
Gust
km/h
Spd
kts
Gust
kts
24/11:30pm 14.2 13.6 13.4 95 0.5 S 9 15 5 8 1020.1 1017.4 -
24/11:00pm 14.2 14.1 13.4 95 0.5 SSE 6 7 3 4 1020.4 1017.8 -
24/10:30pm 14.2 14.1 13.2 94 0.6 S 6 7 3 4 1020.8 1018.1 -
24/10:00pm 14.4 13.3 13.1 92 0.7 S 11 15 6 8 1020.7 1018.0 -
24/09:30pm 14.5 14.1 13.0 91 0.9 SSE 7 11 4 6 1020.7 1018.0 -
24/09:00pm 14.3 13.9 13.0 92 0.7 S 7 11 4 6 1020.4 1017.8 0.0
24/08:30pm 14.5 13.7 13.0 91 0.9 SSE 9 13 5 7 1020.3 1017.7 -
24/08:00pm 14.5 11.7 12.7 89 1.0 SSE 19 26 10 14 1019.7 1017.0 -
24/07:30pm 14.7 13.1 12.7 88 1.1 SSE 13 19 7 10 1020.2 1017.6 -
24/07:00pm 15.0 12.9 12.5 85 1.4 SE 15 22 8 12 1019.7 1017.0 -
24/06:30pm 15.2 12.2 12.7 85 1.4 SE 20 30 11 16 1019.4 1016.7 -
24/06:00pm 15.8 14.9 12.7 82 1.8 SE 9 17 5 9 1019.5 1016.8 -
24/05:30pm 15.9 13.8 12.5 80 1.9 SE 15 22 8 12 1018.8 1016.2 -
24/05:00pm 16.4 14.4 12.8 79 2.1 SE 15 24 8 13 1018.8 1016.2 -
24/04:30pm 17.3 15.0 13.0 76 2.5 SE 17 26 9 14 1018.4 1015.7 -
24/04:00pm 17.1 14.2 12.4 74 2.7 ESE 19 28 10 15 1018.6 1015.9 -
24/03:30pm 17.7 15.0 12.8 73 2.8 ESE 19 26 10 14 1018.7 1016.0 -

Latest Capital City Observations: Canberra | Sydney | Melbourne | Brisbane | Adelaide | Perth | Hobart | Darwin

Other Formats:

Comma delimited format used in spreadsheet applications
http://www.bom.gov.au/fwo/IDN60903/IDN60903.94927.axf

JavaScript Object Notation format (JSON) in row-major order
http://www.bom.gov.au/fwo/IDN60903/IDN60903.94927.json